Jpo Gemini — A8VF7 — position and weather

sailwx.info

Track history (hours):
 
Tides and Currents Weather Stations Pressure Air Temp Water Temp Dewpoint Dewpoint Depression Visibility Wind Speed Wind Dir Waves Ship Positions

Jpo Gemini

Last reported at 2016-Feb-07 01:33 UTC. Time now 2016-Feb-13 02:37 UTC.
Position N 08°12' W 014°01'.

Length 207 m; draft 10 m.

Type: Ship (hazmat cat A). MMSI: 636091995.

Date/timePositionNaut miles runAvg speedWind from/ knotsBaromVisibWave heightAir tempDewpointWater temp
2016-Feb-07 01:33N 08°12' W 014°01'1110.6
2016-Feb-07 00:33N 08°22' W 013°59'1110.8
2016-Feb-06 23:33N 08°33' W 013°58'1111.0
2016-Feb-06 22:33N 08°44' W 013°57'1111.2
2016-Feb-06 21:33N 08°55' W 013°56'1110.9
2016-Feb-06 20:33N 09°06' W 013°54'1110.6
2016-Feb-06 19:33N 09°15' W 013°49'1010.2
2016-Feb-06 18:33N 09°24' W 013°43'7 7.0
2016-Feb-06 17:34N 09°31' W 013°43'0 0.1
2016-Feb-06 16:32N 09°31' W 013°43'0 0.0
2016-Feb-06 15:32N 09°31' W 013°43'0 0.0
2016-Feb-06 14:32N 09°31' W 013°43'0 0.0
2016-Feb-06 13:32N 09°31' W 013°43'0 0.0
2016-Feb-06 12:32N 09°31' W 013°43'0 0.0
2016-Feb-06 11:32N 09°31' W 013°43'0 0.0
2016-Feb-06 10:32N 09°31' W 013°43'0 0.0
2016-Feb-06 09:32N 09°31' W 013°43'0 0.0
2016-Feb-06 08:32N 09°31' W 013°43'0 0.0
2016-Feb-06 07:32N 09°31' W 013°43'0 0.0
2016-Feb-06 06:32N 09°31' W 013°43'0 0.0
2016-Feb-06 05:32N 09°31' W 013°43'0 0.0
2016-Feb-06 04:32N 09°31' W 013°43'0 0.0
2016-Feb-06 03:32N 09°31' W 013°43'0 0.0
2016-Feb-06 02:32N 09°31' W 013°43'0 0.0
2016-Feb-06 01:32N 09°31' W 013°43'0 0.0
2016-Feb-06 00:32N 09°31' W 013°43'0 0.0
2016-Feb-05 23:32N 09°31' W 013°43'0 0.0
2016-Feb-05 22:32N 09°31' W 013°43'0 0.0
2016-Feb-05 21:32N 09°31' W 013°43'0 0.0
2016-Feb-05 20:32N 09°31' W 013°43'0 0.0
2016-Feb-05 19:32N 09°31' W 013°43'0 0.0
2016-Feb-05 18:32N 09°31' W 013°43'0 0.0
2016-Feb-05 17:32N 09°31' W 013°43'0 0.0
2016-Feb-05 16:33N 09°31' W 013°43'4 4.0
2016-Feb-05 15:33N 09°27' W 013°43'8 7.6
2016-Feb-05 14:33N 09°19' W 013°46'10 6.7
2016-Feb-05 13:07N 09°11' W 013°51'15 9.8
2016-Feb-05 11:33N 09°03' W 014°04'1312.2
2016-Feb-05 10:31N 09°00' W 014°16'1110.6
2016-Feb-05 09:29N 09°04' W 014°27'1010.8
2016-Feb-05 08:33N 09°08' W 014°36'1111.1
2016-Feb-05 07:33N 09°12' W 014°46'1111.0
2016-Feb-05 06:33N 09°16' W 014°57'1111.0
2016-Feb-05 05:33N 09°20' W 015°07'1111.1
2016-Feb-05 04:33N 09°25' W 015°18'1111.1
2016-Feb-05 03:33N 09°29' W 015°28'1511.3
2016-Feb-05 02:12N 09°34' W 015°42'711.5
2016-Feb-05 01:33N 09°37' W 015°49'  
2016-Jan-31 20:22N 26°20' W 014°51'911.4
2016-Jan-31 19:33N 26°28' W 014°45'1211.5
2016-Jan-31 18:31N 26°38' W 014°38'1111.0
2016-Jan-31 17:33N 26°47' W 014°32'1110.7
2016-Jan-31 16:33N 26°56' W 014°25'1110.8
2016-Jan-31 15:32N 27°06' W 014°19'7011.0
2016-Jan-31 09:14N 28°04' W 013°36'2011.1
2016-Jan-31 07:24N 28°20' W 013°22'8211.0
2016-Jan-31 00:00N 29°24' W 012°24'4210.8 050 / 181030.410.8 18.013.1
2016-Jan-30 20:06N 30°01' W 012°00'1911.0
2016-Jan-30 18:20N 30°17' W 011°47'45710.6
2016-Jan-28 23:05N 35°57' W 005°43'5 8.9
2016-Jan-28 22:30N 35°57' W 005°37'8 8.4
2016-Jan-28 21:34N 36°00' W 005°28'8 7.6
2016-Jan-28 20:33N 36°07' W 005°24'1 0.3
2016-Jan-28 18:33N 36°08' W 005°24'0 0.0
2016-Jan-28 17:33N 36°08' W 005°24'0 0.1
2016-Jan-28 16:33N 36°08' W 005°24'0 0.1
2016-Jan-28 15:30N 36°08' W 005°24'0 0.0
2016-Jan-28 14:33N 36°08' W 005°24'0 0.1
2016-Jan-28 13:33N 36°08' W 005°24'2 1.6
2016-Jan-28 12:34N 36°09' W 005°26'0 0.2
2016-Jan-28 11:33N 36°09' W 005°26'0 0.0
2016-Jan-28 10:33N 36°09' W 005°26'0 0.0
2016-Jan-28 09:15N 36°09' W 005°26'0 0.0
2016-Jan-28 08:33N 36°09' W 005°26'0 0.0
2016-Jan-28 07:33N 36°09' W 005°26'0 0.0
2016-Jan-28 06:33N 36°09' W 005°26'0 0.0
2016-Jan-28 05:33N 36°09' W 005°26'0 0.0
2016-Jan-28 04:33N 36°09' W 005°26'0 0.0
2016-Jan-28 03:33N 36°09' W 005°26'0 0.0
2016-Jan-28 02:33N 36°09' W 005°26'  
Track history (hours):
 
Tides and Currents Weather Stations Pressure Air Temp Water Temp Dewpoint Dewpoint Depression Visibility Wind Speed Wind Dir Waves Ship Positions

Jpo Gemini

Last reported at 2016-Feb-07 01:33 UTC. Time now 2016-Feb-13 02:37 UTC.
Position N 08°12' W 014°01'.

Length 207 m; draft 10 m.

Type: Ship (hazmat cat A). MMSI: 636091995.

Date/timePositionNaut miles runAvg speedWind from/ knotsBaromVisibWave heightAir tempDewpointWater temp
2016-Feb-07 01:33N 08°12' W 014°01'1110.6
2016-Feb-07 00:33N 08°22' W 013°59'1110.8
2016-Feb-06 23:33N 08°33' W 013°58'1111.0
2016-Feb-06 22:33N 08°44' W 013°57'1111.2
2016-Feb-06 21:33N 08°55' W 013°56'1110.9
2016-Feb-06 20:33N 09°06' W 013°54'1110.6
2016-Feb-06 19:33N 09°15' W 013°49'1010.2
2016-Feb-06 18:33N 09°24' W 013°43'7 7.0
2016-Feb-06 17:34N 09°31' W 013°43'0 0.1
2016-Feb-06 16:32N 09°31' W 013°43'0 0.0
2016-Feb-06 15:32N 09°31' W 013°43'0 0.0
2016-Feb-06 14:32N 09°31' W 013°43'0 0.0
2016-Feb-06 13:32N 09°31' W 013°43'0 0.0
2016-Feb-06 12:32N 09°31' W 013°43'0 0.0
2016-Feb-06 11:32N 09°31' W 013°43'0 0.0
2016-Feb-06 10:32N 09°31' W 013°43'0 0.0
2016-Feb-06 09:32N 09°31' W 013°43'0 0.0
2016-Feb-06 08:32N 09°31' W 013°43'0 0.0
2016-Feb-06 07:32N 09°31' W 013°43'0 0.0
2016-Feb-06 06:32N 09°31' W 013°43'0 0.0
2016-Feb-06 05:32N 09°31' W 013°43'0 0.0
2016-Feb-06 04:32N 09°31' W 013°43'0 0.0
2016-Feb-06 03:32N 09°31' W 013°43'0 0.0
2016-Feb-06 02:32N 09°31' W 013°43'0 0.0
2016-Feb-06 01:32N 09°31' W 013°43'0 0.0
2016-Feb-06 00:32N 09°31' W 013°43'0 0.0
2016-Feb-05 23:32N 09°31' W 013°43'0 0.0
2016-Feb-05 22:32N 09°31' W 013°43'0 0.0
2016-Feb-05 21:32N 09°31' W 013°43'0 0.0
2016-Feb-05 20:32N 09°31' W 013°43'0 0.0
2016-Feb-05 19:32N 09°31' W 013°43'0 0.0
2016-Feb-05 18:32N 09°31' W 013°43'0 0.0
2016-Feb-05 17:32N 09°31' W 013°43'0 0.0
2016-Feb-05 16:33N 09°31' W 013°43'4 4.0
2016-Feb-05 15:33N 09°27' W 013°43'8 7.6
2016-Feb-05 14:33N 09°19' W 013°46'10 6.7
2016-Feb-05 13:07N 09°11' W 013°51'15 9.8
2016-Feb-05 11:33N 09°03' W 014°04'1312.2
2016-Feb-05 10:31N 09°00' W 014°16'1110.6
2016-Feb-05 09:29N 09°04' W 014°27'1010.8
2016-Feb-05 08:33N 09°08' W 014°36'1111.1
2016-Feb-05 07:33N 09°12' W 014°46'1111.0
2016-Feb-05 06:33N 09°16' W 014°57'1111.0
2016-Feb-05 05:33N 09°20' W 015°07'1111.1
2016-Feb-05 04:33N 09°25' W 015°18'1111.1
2016-Feb-05 03:33N 09°29' W 015°28'1511.3
2016-Feb-05 02:12N 09°34' W 015°42'711.5
2016-Feb-05 01:33N 09°37' W 015°49'  
2016-Jan-31 20:22N 26°20' W 014°51'911.4
2016-Jan-31 19:33N 26°28' W 014°45'1211.5
2016-Jan-31 18:31N 26°38' W 014°38'1111.0
2016-Jan-31 17:33N 26°47' W 014°32'1110.7
2016-Jan-31 16:33N 26°56' W 014°25'1110.8
2016-Jan-31 15:32N 27°06' W 014°19'7011.0
2016-Jan-31 09:14N 28°04' W 013°36'2011.1
2016-Jan-31 07:24N 28°20' W 013°22'8211.0
2016-Jan-31 00:00N 29°24' W 012°24'4210.8 050 / 181030.410.8 18.013.1
2016-Jan-30 20:06N 30°01' W 012°00'1911.0
2016-Jan-30 18:20N 30°17' W 011°47'45710.6
2016-Jan-28 23:05N 35°57' W 005°43'5 8.9
2016-Jan-28 22:30N 35°57' W 005°37'8 8.4
2016-Jan-28 21:34N 36°00' W 005°28'8 7.6
2016-Jan-28 20:33N 36°07' W 005°24'1 0.3
2016-Jan-28 18:33N 36°08' W 005°24'0 0.0
2016-Jan-28 17:33N 36°08' W 005°24'0 0.1
2016-Jan-28 16:33N 36°08' W 005°24'0 0.1
2016-Jan-28 15:30N 36°08' W 005°24'0 0.0
2016-Jan-28 14:33N 36°08' W 005°24'0 0.1
2016-Jan-28 13:33N 36°08' W 005°24'2 1.6
2016-Jan-28 12:34N 36°09' W 005°26'0 0.2
2016-Jan-28 11:33N 36°09' W 005°26'0 0.0
2016-Jan-28 10:33N 36°09' W 005°26'0 0.0
2016-Jan-28 09:15N 36°09' W 005°26'0 0.0
2016-Jan-28 08:33N 36°09' W 005°26'0 0.0
2016-Jan-28 07:33N 36°09' W 005°26'0 0.0
2016-Jan-28 06:33N 36°09' W 005°26'0 0.0
2016-Jan-28 05:33N 36°09' W 005°26'0 0.0
2016-Jan-28 04:33N 36°09' W 005°26'0 0.0
2016-Jan-28 03:33N 36°09' W 005°26'0 0.0
2016-Jan-28 02:33N 36°09' W 005°26'  

Dump ship's entire track history